Woody Richerson — WDF9621 — position and weather

sailwx.info

Track history (hours):
 
Tides and Currents Weather Stations Pressure Air Temp Water Temp Dewpoint Dewpoint Depression Visibility Wind Speed Wind Dir Waves Ship Positions

Woody Richerson

Owner: Florida Marine, LLC, Mandeville, LA. More information available from US FCC via Universal Licensing System and Coast Guard Vessel Documentation Center.

Last reported at 2017-Nov-09 12:29 UTC. Time now 2017-Nov-22 02:01 UTC.
Position N 29°33' W 090°24'.
Warning: this ship's position is 12 days out of date.

Length 27 m; draft 2.9 m.

Type: Other ship. MMSI: 367507070.

Date/timePositionNaut miles runAvg speedWind from/ knotsBaromVisibWave heightAir tempDewpointWater temp
2017-Nov-09 12:29N 29°33' W 090°24'0 0.4
2017-Nov-09 11:39N 29°33' W 090°25'1 3.1
2017-Nov-09 11:17N 29°33' W 090°26'1 4.8
2017-Nov-09 11:00N 29°33' W 090°28'2 5.0
2017-Nov-09 10:30N 29°34' W 090°30'2 4.8
2017-Nov-09 10:00N 29°34' W 090°33'2 4.8
2017-Nov-09 09:30N 29°35' W 090°36'2 3.7
2017-Nov-09 09:00N 29°35' W 090°38'2 4.6
2017-Nov-09 08:30N 29°36' W 090°40'2 4.1
2017-Nov-09 08:00N 29°37' W 090°42'2 3.8
2017-Nov-09 07:30N 29°35' W 090°43'2 3.0
2017-Nov-09 07:00N 29°34' W 090°44'2 4.5
2017-Nov-09 06:31N 29°32' W 090°46'3 5.1
2017-Nov-09 06:00N 29°32' W 090°49'3 5.2
2017-Nov-09 05:28N 29°32' W 090°52'3 5.2
2017-Nov-09 04:58N 29°33' W 090°55'58 3.1
2017-Nov-08 10:29N 29°50' W 091°58'2 5.0
2017-Nov-08 10:00N 29°50' W 092°01'3 5.0
2017-Nov-08 09:30N 29°49' W 092°03'2 5.0
2017-Nov-08 09:00N 29°48' W 092°06'3 5.0
2017-Nov-08 08:30N 29°47' W 092°09'2 4.4
2017-Nov-08 08:00N 29°47' W 092°11'1 2.5
2017-Nov-08 07:30N 29°47' W 092°12'1 1.7
2017-Nov-08 07:00N 29°48' W 092°13'2 4.7
2017-Nov-08 06:30N 29°48' W 092°16'2 4.3
2017-Nov-08 06:00N 29°50' W 092°18'2 3.2
2017-Nov-08 05:30N 29°50' W 092°20'1 1.3
2017-Nov-08 05:00N 29°51' W 092°20'3 4.2
2017-Nov-08 04:23N 29°52' W 092°23'36 3.5
2017-Nov-07 18:04N 29°56' W 093°04'0 4.0
2017-Nov-07 17:59N 29°56' W 093°04'2 4.6
2017-Nov-07 17:30N 29°56' W 093°07'2 4.7
2017-Nov-07 17:00N 29°56' W 093°10'2 4.8
2017-Nov-07 16:30N 29°58' W 093°11'2 4.8
2017-Nov-07 16:00N 29°60' W 093°13'2 4.1
2017-Nov-07 15:30N 30°02' W 093°14'1 1.6
2017-Nov-07 15:00N 30°02' W 093°15'2 3.7
2017-Nov-07 14:30N 30°04' W 093°16'2 3.1
2017-Nov-07 14:00N 30°05' W 093°17'1 1.8
2017-Nov-07 13:30N 30°06' W 093°18'1 1.3
2017-Nov-07 13:00N 30°06' W 093°18'0 0.0
2017-Nov-07 12:30N 30°06' W 093°18'0 0.1
2017-Nov-07 12:00N 30°06' W 093°18'2 3.6
2017-Nov-07 11:30N 30°05' W 093°20'2 3.9
2017-Nov-07 11:00N 30°04' W 093°21'2 4.7
2017-Nov-07 10:30N 30°04' W 093°24'3 5.0
2017-Nov-07 10:00N 30°04' W 093°27'3 5.1
2017-Nov-07 09:30N 30°04' W 093°30'  
2017-Nov-05 01:07N 29°44' W 095°08'0 0.5
2017-Nov-05 01:00N 29°44' W 095°08'0 0.7
2017-Nov-05 00:30N 29°44' W 095°08'0 0.0
2017-Nov-05 00:00N 29°44' W 095°08'0 0.0
2017-Nov-04 23:30N 29°44' W 095°08'0 0.0
2017-Nov-04 23:00N 29°44' W 095°08'0 0.0
2017-Nov-04 22:30N 29°44' W 095°08'0 0.0
2017-Nov-04 22:00N 29°44' W 095°08'0 0.0
2017-Nov-04 21:30N 29°44' W 095°08'0 0.0
2017-Nov-04 21:00N 29°44' W 095°08'0 0.0
2017-Nov-04 20:30N 29°44' W 095°08'0 0.0
2017-Nov-04 20:00N 29°44' W 095°08'0 0.0
2017-Nov-04 19:30N 29°44' W 095°08'0 0.0
2017-Nov-04 19:00N 29°44' W 095°08'0 0.0
2017-Nov-04 18:30N 29°44' W 095°08'0 0.0
2017-Nov-04 18:00N 29°44' W 095°08'0 0.0
2017-Nov-04 17:30N 29°44' W 095°08'0 0.0
2017-Nov-04 17:00N 29°44' W 095°08'0 0.0
2017-Nov-04 16:30N 29°44' W 095°08'0 0.0
2017-Nov-04 16:00N 29°44' W 095°08'0 0.0
2017-Nov-04 15:30N 29°44' W 095°08'0 0.0
2017-Nov-04 15:00N 29°44' W 095°08'0 0.0
2017-Nov-04 14:30N 29°44' W 095°08'0 0.0
2017-Nov-04 14:00N 29°44' W 095°08'0 0.0
2017-Nov-04 13:30N 29°44' W 095°08'0 0.0
2017-Nov-04 13:00N 29°44' W 095°08'0 0.0
2017-Nov-04 12:30N 29°44' W 095°08'0 0.0
2017-Nov-04 12:00N 29°44' W 095°08'0 0.0
2017-Nov-04 11:30N 29°44' W 095°08'0 0.0
2017-Nov-04 10:52N 29°44' W 095°08'0 0.0
2017-Nov-04 10:30N 29°44' W 095°08'0 0.0
2017-Nov-04 10:00N 29°44' W 095°08'0 0.0
2017-Nov-04 09:29N 29°44' W 095°08'0 0.0
2017-Nov-04 09:00N 29°44' W 095°08'0 0.0
2017-Nov-04 08:30N 29°44' W 095°08'0 0.0
2017-Nov-04 07:52N 29°44' W 095°08'0 0.0
2017-Nov-04 07:30N 29°44' W 095°08'0 0.0
2017-Nov-04 07:00N 29°44' W 095°08'0 0.0
2017-Nov-04 06:29N 29°44' W 095°08'0 0.0
2017-Nov-04 06:00N 29°44' W 095°08'0 0.0
2017-Nov-04 05:30N 29°44' W 095°08'0 0.0
2017-Nov-04 04:59N 29°44' W 095°08'0 0.0
2017-Nov-04 04:30N 29°44' W 095°08'0 0.0
2017-Nov-04 03:59N 29°44' W 095°08'0 0.0
2017-Nov-04 03:30N 29°44' W 095°08'0 0.0
2017-Nov-04 03:00N 29°44' W 095°08'0 0.0
2017-Nov-04 02:30N 29°44' W 095°08'0 0.0
2017-Nov-04 02:00N 29°44' W 095°08'0 0.0
2017-Nov-04 01:30N 29°44' W 095°08'0 0.0
2017-Nov-04 01:00N 29°44' W 095°08'0 0.0
2017-Nov-04 00:30N 29°44' W 095°08'0 0.0
2017-Nov-04 00:00N 29°44' W 095°08'0 0.0
2017-Nov-03 23:30N 29°44' W 095°08'0 0.0
2017-Nov-03 23:00N 29°44' W 095°08'0 0.0
2017-Nov-03 22:30N 29°44' W 095°08'0 0.0
2017-Nov-03 22:00N 29°44' W 095°08'0 0.0
2017-Nov-03 21:30N 29°44' W 095°08'0 0.0
2017-Nov-03 21:00N 29°44' W 095°08'0 0.0
2017-Nov-03 20:30N 29°44' W 095°08'0 0.0
2017-Nov-03 20:00N 29°44' W 095°08'0 0.0
2017-Nov-03 19:30N 29°44' W 095°08'0 0.0
2017-Nov-03 19:00N 29°44' W 095°08'0 0.0
2017-Nov-03 18:30N 29°44' W 095°08'0 0.0
2017-Nov-03 18:00N 29°44' W 095°08'0 0.0
2017-Nov-03 17:30N 29°44' W 095°08'0 0.0
2017-Nov-03 17:00N 29°44' W 095°08'0 0.0
2017-Nov-03 16:30N 29°44' W 095°08'0 0.0
2017-Nov-03 16:00N 29°44' W 095°08'0 0.0
2017-Nov-03 15:30N 29°44' W 095°08'0 0.0
2017-Nov-03 15:00N 29°44' W 095°08'0 0.0
2017-Nov-03 14:30N 29°44' W 095°08'0 0.0
2017-Nov-03 14:00N 29°44' W 095°08'0 0.0
2017-Nov-03 13:30N 29°44' W 095°08'0 0.0
2017-Nov-03 13:00N 29°44' W 095°08'0 0.0
2017-Nov-03 12:30N 29°44' W 095°08'0 0.0
2017-Nov-03 12:00N 29°44' W 095°08'0 0.0
2017-Nov-03 11:30N 29°44' W 095°08'0 0.0
2017-Nov-03 11:00N 29°44' W 095°08'0 0.0
2017-Nov-03 10:30N 29°44' W 095°08'0 0.0
2017-Nov-03 10:00N 29°44' W 095°08'0 0.0
2017-Nov-03 09:30N 29°44' W 095°08'0 0.0
2017-Nov-03 09:00N 29°44' W 095°08'0 0.0
2017-Nov-03 08:30N 29°44' W 095°08'0 0.0
2017-Nov-03 08:00N 29°44' W 095°08'0 0.0
2017-Nov-03 07:30N 29°44' W 095°08'0 0.0
2017-Nov-03 07:00N 29°44' W 095°08'0 0.0
2017-Nov-03 06:30N 29°44' W 095°08'0 0.0
2017-Nov-03 06:00N 29°44' W 095°08'0 0.0
2017-Nov-03 05:30N 29°44' W 095°08'0 0.0
2017-Nov-03 05:00N 29°44' W 095°08'0 0.0
2017-Nov-03 04:30N 29°44' W 095°08'0 0.0
2017-Nov-03 04:00N 29°44' W 095°08'0 0.0
2017-Nov-03 03:30N 29°44' W 095°08'0 0.0
2017-Nov-03 03:01N 29°44' W 095°08'0 0.0
2017-Nov-03 02:30N 29°44' W 095°08'2 0.7
2017-Nov-02 23:31N 29°45' W 095°06'1 8.0
2017-Nov-02 23:22N 29°44' W 095°07'1 2.4
2017-Nov-02 23:00N 29°44' W 095°08'0 0.0
2017-Nov-02 22:30N 29°44' W 095°08'0 0.0
2017-Nov-02 22:00N 29°44' W 095°08'0 0.0
2017-Nov-02 21:30N 29°44' W 095°08'0 0.0
2017-Nov-02 21:00N 29°44' W 095°08'0 0.0
2017-Nov-02 20:30N 29°44' W 095°08'0 0.0
2017-Nov-02 20:00N 29°44' W 095°08'0 0.0
2017-Nov-02 19:30N 29°44' W 095°08'0 0.0
2017-Nov-02 19:00N 29°44' W 095°08'0 0.0
2017-Nov-02 18:30N 29°44' W 095°08'0 0.2
2017-Nov-02 18:00N 29°44' W 095°08'4 3.2
2017-Nov-02 16:52N 29°46' W 095°04'2 6.3
2017-Nov-02 16:29N 29°44' W 095°03'2 5.1
2017-Nov-02 16:00N 29°42' W 095°01'3 6.0
2017-Nov-02 15:30N 29°40' W 094°58'4 7.2
2017-Nov-02 15:00N 29°36' W 094°57'4 7.1
2017-Nov-02 14:30N 29°34' W 094°55'70 4.3
2017-Nov-01 22:04N 30°03' W 093°42'1 5.5
2017-Nov-01 21:54N 30°04' W 093°41'2 5.0
2017-Nov-01 21:30N 30°04' W 093°38'3 5.3
2017-Nov-01 21:00N 30°04' W 093°35'3 5.2
2017-Nov-01 20:30N 30°04' W 093°32'3 5.3
2017-Nov-01 20:00N 30°04' W 093°29'3 5.3
2017-Nov-01 19:30N 30°04' W 093°26'3 5.2
2017-Nov-01 19:00N 30°04' W 093°23'2 4.2
2017-Nov-01 18:30N 30°04' W 093°21'63 3.8
2017-Nov-01 02:00N 29°47' W 092°11'1 2.9
2017-Nov-01 01:30N 29°47' W 092°10'3 5.4
2017-Nov-01 01:00N 29°48' W 092°07'3 5.3
2017-Nov-01 00:30N 29°48' W 092°04'4 5.1
2017-Oct-31 23:45N 29°50' W 091°60'55 5.0
2017-Oct-31 12:40N 29°36' W 090°58'4 5.5
2017-Oct-31 11:59N 29°33' W 090°55'3 5.6
2017-Oct-31 11:28N 29°32' W 090°52'3 5.8
2017-Oct-31 11:00N 29°32' W 090°49'3 5.3
2017-Oct-31 10:30N 29°32' W 090°46'2 4.4
2017-Oct-31 10:00N 29°34' W 090°44'2 4.2
2017-Oct-31 09:30N 29°36' W 090°43'2 3.1
2017-Oct-31 09:00N 29°36' W 090°41'2 4.7
2017-Oct-31 08:30N 29°35' W 090°38'2 4.6
2017-Oct-31 08:00N 29°35' W 090°36'2 4.9
2017-Oct-31 07:30N 29°34' W 090°33'3 5.1
2017-Oct-31 07:00N 29°34' W 090°30'  
Track history (hours):
 
Tides and Currents Weather Stations Pressure Air Temp Water Temp Dewpoint Dewpoint Depression Visibility Wind Speed Wind Dir Waves Ship Positions

Woody Richerson

Owner: Florida Marine, LLC, Mandeville, LA. More information available from US FCC via Universal Licensing System and Coast Guard Vessel Documentation Center.

Last reported at 2017-Nov-09 12:29 UTC. Time now 2017-Nov-22 02:01 UTC.
Position N 29°33' W 090°24'.
Warning: this ship's position is 12 days out of date.

Length 27 m; draft 2.9 m.

Type: Other ship. MMSI: 367507070.

Date/timePositionNaut miles runAvg speedWind from/ knotsBaromVisibWave heightAir tempDewpointWater temp
2017-Nov-09 12:29N 29°33' W 090°24'0 0.4
2017-Nov-09 11:39N 29°33' W 090°25'1 3.1
2017-Nov-09 11:17N 29°33' W 090°26'1 4.8
2017-Nov-09 11:00N 29°33' W 090°28'2 5.0
2017-Nov-09 10:30N 29°34' W 090°30'2 4.8
2017-Nov-09 10:00N 29°34' W 090°33'2 4.8
2017-Nov-09 09:30N 29°35' W 090°36'2 3.7
2017-Nov-09 09:00N 29°35' W 090°38'2 4.6
2017-Nov-09 08:30N 29°36' W 090°40'2 4.1
2017-Nov-09 08:00N 29°37' W 090°42'2 3.8
2017-Nov-09 07:30N 29°35' W 090°43'2 3.0
2017-Nov-09 07:00N 29°34' W 090°44'2 4.5
2017-Nov-09 06:31N 29°32' W 090°46'3 5.1
2017-Nov-09 06:00N 29°32' W 090°49'3 5.2
2017-Nov-09 05:28N 29°32' W 090°52'3 5.2
2017-Nov-09 04:58N 29°33' W 090°55'58 3.1
2017-Nov-08 10:29N 29°50' W 091°58'2 5.0
2017-Nov-08 10:00N 29°50' W 092°01'3 5.0
2017-Nov-08 09:30N 29°49' W 092°03'2 5.0
2017-Nov-08 09:00N 29°48' W 092°06'3 5.0
2017-Nov-08 08:30N 29°47' W 092°09'2 4.4
2017-Nov-08 08:00N 29°47' W 092°11'1 2.5
2017-Nov-08 07:30N 29°47' W 092°12'1 1.7
2017-Nov-08 07:00N 29°48' W 092°13'2 4.7
2017-Nov-08 06:30N 29°48' W 092°16'2 4.3
2017-Nov-08 06:00N 29°50' W 092°18'2 3.2
2017-Nov-08 05:30N 29°50' W 092°20'1 1.3
2017-Nov-08 05:00N 29°51' W 092°20'3 4.2
2017-Nov-08 04:23N 29°52' W 092°23'36 3.5
2017-Nov-07 18:04N 29°56' W 093°04'0 4.0
2017-Nov-07 17:59N 29°56' W 093°04'2 4.6
2017-Nov-07 17:30N 29°56' W 093°07'2 4.7
2017-Nov-07 17:00N 29°56' W 093°10'2 4.8
2017-Nov-07 16:30N 29°58' W 093°11'2 4.8
2017-Nov-07 16:00N 29°60' W 093°13'2 4.1
2017-Nov-07 15:30N 30°02' W 093°14'1 1.6
2017-Nov-07 15:00N 30°02' W 093°15'2 3.7
2017-Nov-07 14:30N 30°04' W 093°16'2 3.1
2017-Nov-07 14:00N 30°05' W 093°17'1 1.8
2017-Nov-07 13:30N 30°06' W 093°18'1 1.3
2017-Nov-07 13:00N 30°06' W 093°18'0 0.0
2017-Nov-07 12:30N 30°06' W 093°18'0 0.1
2017-Nov-07 12:00N 30°06' W 093°18'2 3.6
2017-Nov-07 11:30N 30°05' W 093°20'2 3.9
2017-Nov-07 11:00N 30°04' W 093°21'2 4.7
2017-Nov-07 10:30N 30°04' W 093°24'3 5.0
2017-Nov-07 10:00N 30°04' W 093°27'3 5.1
2017-Nov-07 09:30N 30°04' W 093°30'  
2017-Nov-05 01:07N 29°44' W 095°08'0 0.5
2017-Nov-05 01:00N 29°44' W 095°08'0 0.7
2017-Nov-05 00:30N 29°44' W 095°08'0 0.0
2017-Nov-05 00:00N 29°44' W 095°08'0 0.0
2017-Nov-04 23:30N 29°44' W 095°08'0 0.0
2017-Nov-04 23:00N 29°44' W 095°08'0 0.0
2017-Nov-04 22:30N 29°44' W 095°08'0 0.0
2017-Nov-04 22:00N 29°44' W 095°08'0 0.0
2017-Nov-04 21:30N 29°44' W 095°08'0 0.0
2017-Nov-04 21:00N 29°44' W 095°08'0 0.0
2017-Nov-04 20:30N 29°44' W 095°08'0 0.0
2017-Nov-04 20:00N 29°44' W 095°08'0 0.0
2017-Nov-04 19:30N 29°44' W 095°08'0 0.0
2017-Nov-04 19:00N 29°44' W 095°08'0 0.0
2017-Nov-04 18:30N 29°44' W 095°08'0 0.0
2017-Nov-04 18:00N 29°44' W 095°08'0 0.0
2017-Nov-04 17:30N 29°44' W 095°08'0 0.0
2017-Nov-04 17:00N 29°44' W 095°08'0 0.0
2017-Nov-04 16:30N 29°44' W 095°08'0 0.0
2017-Nov-04 16:00N 29°44' W 095°08'0 0.0
2017-Nov-04 15:30N 29°44' W 095°08'0 0.0
2017-Nov-04 15:00N 29°44' W 095°08'0 0.0
2017-Nov-04 14:30N 29°44' W 095°08'0 0.0
2017-Nov-04 14:00N 29°44' W 095°08'0 0.0
2017-Nov-04 13:30N 29°44' W 095°08'0 0.0
2017-Nov-04 13:00N 29°44' W 095°08'0 0.0
2017-Nov-04 12:30N 29°44' W 095°08'0 0.0
2017-Nov-04 12:00N 29°44' W 095°08'0 0.0
2017-Nov-04 11:30N 29°44' W 095°08'0 0.0
2017-Nov-04 10:52N 29°44' W 095°08'0 0.0
2017-Nov-04 10:30N 29°44' W 095°08'0 0.0
2017-Nov-04 10:00N 29°44' W 095°08'0 0.0
2017-Nov-04 09:29N 29°44' W 095°08'0 0.0
2017-Nov-04 09:00N 29°44' W 095°08'0 0.0
2017-Nov-04 08:30N 29°44' W 095°08'0 0.0
2017-Nov-04 07:52N 29°44' W 095°08'0 0.0
2017-Nov-04 07:30N 29°44' W 095°08'0 0.0
2017-Nov-04 07:00N 29°44' W 095°08'0 0.0
2017-Nov-04 06:29N 29°44' W 095°08'0 0.0
2017-Nov-04 06:00N 29°44' W 095°08'0 0.0
2017-Nov-04 05:30N 29°44' W 095°08'0 0.0
2017-Nov-04 04:59N 29°44' W 095°08'0 0.0
2017-Nov-04 04:30N 29°44' W 095°08'0 0.0
2017-Nov-04 03:59N 29°44' W 095°08'0 0.0
2017-Nov-04 03:30N 29°44' W 095°08'0 0.0
2017-Nov-04 03:00N 29°44' W 095°08'0 0.0
2017-Nov-04 02:30N 29°44' W 095°08'0 0.0
2017-Nov-04 02:00N 29°44' W 095°08'0 0.0
2017-Nov-04 01:30N 29°44' W 095°08'0 0.0
2017-Nov-04 01:00N 29°44' W 095°08'0 0.0
2017-Nov-04 00:30N 29°44' W 095°08'0 0.0
2017-Nov-04 00:00N 29°44' W 095°08'0 0.0
2017-Nov-03 23:30N 29°44' W 095°08'0 0.0
2017-Nov-03 23:00N 29°44' W 095°08'0 0.0
2017-Nov-03 22:30N 29°44' W 095°08'0 0.0
2017-Nov-03 22:00N 29°44' W 095°08'0 0.0
2017-Nov-03 21:30N 29°44' W 095°08'0 0.0
2017-Nov-03 21:00N 29°44' W 095°08'0 0.0
2017-Nov-03 20:30N 29°44' W 095°08'0 0.0
2017-Nov-03 20:00N 29°44' W 095°08'0 0.0
2017-Nov-03 19:30N 29°44' W 095°08'0 0.0
2017-Nov-03 19:00N 29°44' W 095°08'0 0.0
2017-Nov-03 18:30N 29°44' W 095°08'0 0.0
2017-Nov-03 18:00N 29°44' W 095°08'0 0.0
2017-Nov-03 17:30N 29°44' W 095°08'0 0.0
2017-Nov-03 17:00N 29°44' W 095°08'0 0.0
2017-Nov-03 16:30N 29°44' W 095°08'0 0.0
2017-Nov-03 16:00N 29°44' W 095°08'0 0.0
2017-Nov-03 15:30N 29°44' W 095°08'0 0.0
2017-Nov-03 15:00N 29°44' W 095°08'0 0.0
2017-Nov-03 14:30N 29°44' W 095°08'0 0.0
2017-Nov-03 14:00N 29°44' W 095°08'0 0.0
2017-Nov-03 13:30N 29°44' W 095°08'0 0.0
2017-Nov-03 13:00N 29°44' W 095°08'0 0.0
2017-Nov-03 12:30N 29°44' W 095°08'0 0.0
2017-Nov-03 12:00N 29°44' W 095°08'0 0.0
2017-Nov-03 11:30N 29°44' W 095°08'0 0.0
2017-Nov-03 11:00N 29°44' W 095°08'0 0.0
2017-Nov-03 10:30N 29°44' W 095°08'0 0.0
2017-Nov-03 10:00N 29°44' W 095°08'0 0.0
2017-Nov-03 09:30N 29°44' W 095°08'0 0.0
2017-Nov-03 09:00N 29°44' W 095°08'0 0.0
2017-Nov-03 08:30N 29°44' W 095°08'0 0.0
2017-Nov-03 08:00N 29°44' W 095°08'0 0.0
2017-Nov-03 07:30N 29°44' W 095°08'0 0.0
2017-Nov-03 07:00N 29°44' W 095°08'0 0.0
2017-Nov-03 06:30N 29°44' W 095°08'0 0.0
2017-Nov-03 06:00N 29°44' W 095°08'0 0.0
2017-Nov-03 05:30N 29°44' W 095°08'0 0.0
2017-Nov-03 05:00N 29°44' W 095°08'0 0.0
2017-Nov-03 04:30N 29°44' W 095°08'0 0.0
2017-Nov-03 04:00N 29°44' W 095°08'0 0.0
2017-Nov-03 03:30N 29°44' W 095°08'0 0.0
2017-Nov-03 03:01N 29°44' W 095°08'0 0.0
2017-Nov-03 02:30N 29°44' W 095°08'2 0.7
2017-Nov-02 23:31N 29°45' W 095°06'1 8.0
2017-Nov-02 23:22N 29°44' W 095°07'1 2.4
2017-Nov-02 23:00N 29°44' W 095°08'0 0.0
2017-Nov-02 22:30N 29°44' W 095°08'0 0.0
2017-Nov-02 22:00N 29°44' W 095°08'0 0.0
2017-Nov-02 21:30N 29°44' W 095°08'0 0.0
2017-Nov-02 21:00N 29°44' W 095°08'0 0.0
2017-Nov-02 20:30N 29°44' W 095°08'0 0.0
2017-Nov-02 20:00N 29°44' W 095°08'0 0.0
2017-Nov-02 19:30N 29°44' W 095°08'0 0.0
2017-Nov-02 19:00N 29°44' W 095°08'0 0.0
2017-Nov-02 18:30N 29°44' W 095°08'0 0.2
2017-Nov-02 18:00N 29°44' W 095°08'4 3.2
2017-Nov-02 16:52N 29°46' W 095°04'2 6.3
2017-Nov-02 16:29N 29°44' W 095°03'2 5.1
2017-Nov-02 16:00N 29°42' W 095°01'3 6.0
2017-Nov-02 15:30N 29°40' W 094°58'4 7.2
2017-Nov-02 15:00N 29°36' W 094°57'4 7.1
2017-Nov-02 14:30N 29°34' W 094°55'70 4.3
2017-Nov-01 22:04N 30°03' W 093°42'1 5.5
2017-Nov-01 21:54N 30°04' W 093°41'2 5.0
2017-Nov-01 21:30N 30°04' W 093°38'3 5.3
2017-Nov-01 21:00N 30°04' W 093°35'3 5.2
2017-Nov-01 20:30N 30°04' W 093°32'3 5.3
2017-Nov-01 20:00N 30°04' W 093°29'3 5.3
2017-Nov-01 19:30N 30°04' W 093°26'3 5.2
2017-Nov-01 19:00N 30°04' W 093°23'2 4.2
2017-Nov-01 18:30N 30°04' W 093°21'63 3.8
2017-Nov-01 02:00N 29°47' W 092°11'1 2.9
2017-Nov-01 01:30N 29°47' W 092°10'3 5.4
2017-Nov-01 01:00N 29°48' W 092°07'3 5.3
2017-Nov-01 00:30N 29°48' W 092°04'4 5.1
2017-Oct-31 23:45N 29°50' W 091°60'55 5.0
2017-Oct-31 12:40N 29°36' W 090°58'4 5.5
2017-Oct-31 11:59N 29°33' W 090°55'3 5.6
2017-Oct-31 11:28N 29°32' W 090°52'3 5.8
2017-Oct-31 11:00N 29°32' W 090°49'3 5.3
2017-Oct-31 10:30N 29°32' W 090°46'2 4.4
2017-Oct-31 10:00N 29°34' W 090°44'2 4.2
2017-Oct-31 09:30N 29°36' W 090°43'2 3.1
2017-Oct-31 09:00N 29°36' W 090°41'2 4.7
2017-Oct-31 08:30N 29°35' W 090°38'2 4.6
2017-Oct-31 08:00N 29°35' W 090°36'2 4.9
2017-Oct-31 07:30N 29°34' W 090°33'3 5.1
2017-Oct-31 07:00N 29°34' W 090°30'  

Dump ship's entire track history